PWSweather.com
Personal Weather Stations
Station Observations
KV9EWX
Winnebago, Il, Winnebago, IL 61088

Winnebago, IlWinnebago, IL 61088

Lat: 42.261175, Lon: -89.236369

Elevation: 892

Station Type: Lacrosse ws-2811

Latest ConditionsUpdated 6:12:04 PM CST Sunday, Nov 19, 2017
Currently Today's Max Today's Min Today's Average
Temperature 26.1°F-3.3°C 38.3°F3.5°C 18.4°F-7.6°C 27.4°F-2.6°C
Dew Point -23.1°F-30.6°C 17.6°F-8.0°C -29.2°F-34.0°C -15.4°F-26.3°C
Winds 2.7 mph SSE4.3 kmh SSE 9.4 mph WNW15.1 kmh WNW - 5.0 mph 8.0 kmh
Wind Gusts 6.0 mph9.7 kmh 16.8 mph27.0 kmh - -
Humidity 1% 43% 1% 10%
Pressure 29.65 in1004.1 mb 29.69 in1005.4 mb 29.50 in999.0 mb -
Hour Temp Dew Point Humidity Winds Wind Gusts Pressure Precip Precip Rate Daily Precip Total
06:12 PM 26.1°F-3.3°C -23.1°F-30.6°C 1% 2.7 mph SSE4.3 kmh SSE 6.0 mph9.7 kmh 29.65 in1004.1 mb 0.00 in0.0 mm 0.00 in0.0 mm 0.00 in0.0 mm
06:02 PM 26.3°F-3.2°C -22.9°F-30.5°C 1% 3.3 mph SSE5.3 kmh SSE 5.4 mph8.7 kmh 29.66 in1004.4 mb 0.00 in0.0 mm 0.00 in0.0 mm 0.00 in0.0 mm
05:52 PM 26.6°F-3.0°C -22.7°F-30.4°C 1% 3.3 mph S5.3 kmh S 5.4 mph8.7 kmh 29.66 in1004.4 mb 0.00 in0.0 mm 0.00 in0.0 mm 0.00 in0.0 mm
05:42 PM 27.0°F-2.8°C -22.4°F-30.2°C 1% 1.9 mph S3.1 kmh S 3.1 mph5.0 kmh 29.66 in1004.4 mb 0.00 in0.0 mm 0.00 in0.0 mm 0.00 in0.0 mm
05:32 PM 27.5°F-2.5°C -22.0°F-30.0°C 1% 1.9 mph S3.1 kmh S 2.8 mph4.5 kmh 29.65 in1004.1 mb 0.00 in0.0 mm 0.00 in0.0 mm 0.00 in0.0 mm
05:22 PM 27.9°F-2.3°C -21.7°F-29.8°C 1% 2.7 mph S4.3 kmh S 3.1 mph5.0 kmh 29.66 in1004.4 mb 0.00 in0.0 mm 0.00 in0.0 mm 0.00 in0.0 mm
05:12 PM 28.4°F-2.0°C -21.2°F-29.6°C 1% Calm Calm 4.4 mph7.1 kmh 29.66 in1004.4 mb 0.00 in0.0 mm 0.00 in0.0 mm 0.00 in0.0 mm
05:02 PM 28.8°F-1.8°C -21.0°F-29.4°C 1% Calm Calm -- 29.65 in1004.1 mb 0.00 in0.0 mm 0.00 in0.0 mm 0.00 in0.0 mm
04:52 PM 29.5°F-1.4°C -20.3°F-29.1°C 1% Calm Calm -- 29.66 in1004.4 mb 0.00 in0.0 mm 0.00 in0.0 mm 0.00 in0.0 mm
04:42 PM 30.2°F-1.0°C -19.8°F-28.8°C 6% Calm Calm -- 29.65 in1004.1 mb 0.00 in0.0 mm 0.00 in0.0 mm 0.00 in0.0 mm
04:32 PM 30.8°F-0.7°C -19.3°F-28.5°C 10% Calm Calm 3.1 mph5.0 kmh 29.65 in1004.1 mb 0.00 in0.0 mm 0.00 in0.0 mm 0.00 in0.0 mm
04:22 PM 31.5°F-0.3°C -10.5°F-23.6°C 16% 2.0 mph WSW3.2 kmh WSW 5.4 mph8.7 kmh 29.65 in1004.1 mb 0.00 in0.0 mm 0.00 in0.0 mm 0.00 in0.0 mm
04:12 PM 32.0°F0.0°C -4.5°F-20.3°C 20% 4.6 mph WSW7.4 kmh WSW 7.5 mph12.1 kmh 29.65 in1004.1 mb 0.00 in0.0 mm 0.00 in0.0 mm 0.00 in0.0 mm
04:02 PM 32.8°F0.4°C 1.3°F-17.1°C 26% 1.5 mph W2.4 kmh W 8.2 mph13.2 kmh 29.66 in1004.4 mb 0.00 in0.0 mm 0.00 in0.0 mm 0.00 in0.0 mm
03:52 PM 33.3°F0.7°C 5.3°F-14.8°C 30% 7.0 mph SW11.3 kmh SW 8.2 mph13.2 kmh 29.66 in1004.4 mb 0.00 in0.0 mm 0.00 in0.0 mm 0.00 in0.0 mm
03:42 PM 34.0°F1.1°C 9.7°F-12.4°C 36% 5.3 mph W8.5 kmh W 6.7 mph10.8 kmh 29.66 in1004.4 mb 0.00 in0.0 mm 0.00 in0.0 mm 0.00 in0.0 mm
03:32 PM 34.6°F1.4°C 7.7°F-13.5°C 32% 5.6 mph WSW9.0 kmh WSW 10.5 mph16.9 kmh 29.66 in1004.4 mb 0.00 in0.0 mm 0.00 in0.0 mm 0.00 in0.0 mm
03:22 PM 34.7°F1.5°C 10.4°F-12.0°C 36% 2.9 mph SW4.7 kmh SW 11.0 mph17.7 kmh 29.66 in1004.4 mb 0.00 in0.0 mm 0.00 in0.0 mm 0.00 in0.0 mm
03:12 PM 34.6°F1.4°C 10.2°F-12.1°C 36% 8.3 mph WSW13.4 kmh WSW 10.5 mph16.9 kmh 29.65 in1004.1 mb 0.00 in0.0 mm 0.00 in0.0 mm 0.00 in0.0 mm
03:01 PM 34.4°F1.3°C 10.6°F-11.9°C 37% 8.0 mph WSW12.9 kmh WSW 12.1 mph19.5 kmh 29.65 in1004.1 mb 0.00 in0.0 mm 0.00 in0.0 mm 0.00 in0.0 mm
02:52 PM 34.7°F1.5°C 12.9°F-10.6°C 40% 6.8 mph NW10.9 kmh NW 8.9 mph14.3 kmh 29.65 in1004.1 mb 0.00 in0.0 mm 0.00 in0.0 mm 0.00 in0.0 mm
02:42 PM 35.6°F2.0°C 13.1°F-10.5°C 39% 5.4 mph W8.7 kmh W 11.0 mph17.7 kmh 29.65 in1004.1 mb 0.00 in0.0 mm 0.00 in0.0 mm 0.00 in0.0 mm
02:32 PM 35.8°F2.1°C 10.6°F-11.9°C 35% 3.0 mph NW4.8 kmh NW 8.6 mph13.8 kmh 29.65 in1004.1 mb 0.00 in0.0 mm 0.00 in0.0 mm 0.00 in0.0 mm
02:22 PM 35.6°F2.0°C 11.7°F-11.3°C 37% 5.8 mph W9.3 kmh W 10.5 mph16.9 kmh 29.66 in1004.4 mb 0.00 in0.0 mm 0.00 in0.0 mm 0.00 in0.0 mm
02:12 PM 35.5°F1.9°C 11.6°F-11.3°C 37% 3.8 mph WSW6.1 kmh WSW 6.3 mph10.1 kmh 29.65 in1004.1 mb 0.00 in0.0 mm 0.00 in0.0 mm 0.00 in0.0 mm
02:01 PM 35.5°F1.9°C 14.6°F-9.7°C 42% 6.2 mph SW10.0 kmh SW 12.1 mph19.5 kmh 29.66 in1004.4 mb 0.00 in0.0 mm 0.00 in0.0 mm 0.00 in0.0 mm
01:52 PM 36.4°F2.4°C 15.4°F-9.2°C 42% 4.8 mph WSW7.7 kmh WSW 11.0 mph17.7 kmh 29.66 in1004.4 mb 0.00 in0.0 mm 0.00 in0.0 mm 0.00 in0.0 mm
01:42 PM 37.1°F2.8°C 16.0°F-8.9°C 42% 4.2 mph W6.8 kmh W 12.9 mph20.8 kmh 29.66 in1004.4 mb 0.00 in0.0 mm 0.00 in0.0 mm 0.00 in0.0 mm
01:32 PM 37.4°F3.0°C 16.8°F-8.4°C 43% Calm Calm 10.2 mph16.4 kmh 29.65 in1004.1 mb 0.00 in0.0 mm 0.00 in0.0 mm 0.00 in0.0 mm
01:22 PM 38.3°F3.5°C 17.6°F-8.0°C 43% 6.7 mph W10.8 kmh W 13.3 mph21.4 kmh 29.65 in1004.1 mb 0.00 in0.0 mm 0.00 in0.0 mm 0.00 in0.0 mm
01:12 PM 38.3°F3.5°C 17.6°F-8.0°C 43% 7.7 mph W12.4 kmh W 14.9 mph24.0 kmh 29.65 in1004.1 mb 0.00 in0.0 mm 0.00 in0.0 mm 0.00 in0.0 mm
01:02 PM 37.6°F3.1°C 11.6°F-11.3°C 34% 8.9 mph W14.3 kmh W 11.4 mph18.3 kmh 29.66 in1004.4 mb 0.00 in0.0 mm 0.00 in0.0 mm 0.00 in0.0 mm
12:52 PM 36.7°F2.6°C 11.4°F-11.4°C 35% 5.3 mph WSW8.5 kmh WSW 8.9 mph14.3 kmh 29.66 in1004.4 mb 0.00 in0.0 mm 0.00 in0.0 mm 0.00 in0.0 mm
12:42 PM 34.7°F1.5°C 9.0°F-12.8°C 34% 3.2 mph W5.1 kmh W 14.5 mph23.3 kmh 29.66 in1004.4 mb 0.00 in0.0 mm 0.00 in0.0 mm 0.00 in0.0 mm
12:32 PM 35.5°F1.9°C 10.3°F-12.1°C 35% 6.5 mph WNW10.5 kmh WNW 8.6 mph13.8 kmh 29.66 in1004.4 mb 0.00 in0.0 mm 0.00 in0.0 mm 0.00 in0.0 mm
12:22 PM 37.1°F2.8°C 9.8°F-12.3°C 32% 8.7 mph WSW14.0 kmh WSW 12.6 mph20.3 kmh 29.66 in1004.4 mb 0.00 in0.0 mm 0.00 in0.0 mm 0.00 in0.0 mm
12:12 PM 35.8°F2.1°C 7.4°F-13.7°C 30% 7.9 mph W12.7 kmh W 12.6 mph20.3 kmh 29.66 in1004.4 mb 0.00 in0.0 mm 0.00 in0.0 mm 0.00 in0.0 mm
12:02 PM 36.0°F2.2°C 4.1°F-15.5°C 26% 7.6 mph SW12.2 kmh SW 12.6 mph20.3 kmh 29.67 in1004.7 mb 0.00 in0.0 mm 0.00 in0.0 mm 0.00 in0.0 mm
11:51 AM 35.6°F2.0°C -15.7°F-26.5°C 9% 5.5 mph NW8.9 kmh NW 8.9 mph14.3 kmh 29.67 in1004.7 mb 0.00 in0.0 mm 0.00 in0.0 mm 0.00 in0.0 mm
11:41 AM 34.0°F1.1°C -1.2°F-18.4°C 22% 6.1 mph W9.8 kmh W 11.7 mph18.8 kmh 29.67 in1004.7 mb 0.00 in0.0 mm 0.00 in0.0 mm 0.00 in0.0 mm
11:31 AM 33.5°F0.8°C -1.6°F-18.7°C 22% 9.4 mph WNW15.1 kmh WNW 12.1 mph19.5 kmh 29.69 in1005.4 mb 0.00 in0.0 mm 0.00 in0.0 mm 0.00 in0.0 mm
11:22 AM 33.1°F0.6°C -17.6°F-27.6°C 9% 5.9 mph NW9.5 kmh NW 9.4 mph15.1 kmh 29.69 in1005.4 mb 0.00 in0.0 mm 0.00 in0.0 mm 0.00 in0.0 mm
11:12 AM 32.0°F0.0°C -18.4°F-28.0°C 7% 4.4 mph W7.1 kmh W 12.9 mph20.8 kmh 29.69 in1005.4 mb 0.00 in0.0 mm 0.00 in0.0 mm 0.00 in0.0 mm
11:02 AM 31.9°F-0.1°C -6.8°F-21.6°C 18% 8.9 mph WSW14.3 kmh WSW 14.2 mph22.9 kmh 29.69 in1005.4 mb 0.00 in0.0 mm 0.00 in0.0 mm 0.00 in0.0 mm
10:51 AM 31.0°F-0.6°C -19.3°F-28.5°C 1% 7.5 mph WNW12.1 kmh WNW 12.1 mph19.5 kmh 29.69 in1005.4 mb 0.00 in0.0 mm 0.00 in0.0 mm 0.00 in0.0 mm
10:41 AM 30.4°F-0.9°C -19.6°F-28.7°C 1% 8.4 mph WSW13.5 kmh WSW 14.5 mph23.3 kmh 29.69 in1005.4 mb 0.00 in0.0 mm 0.00 in0.0 mm 0.00 in0.0 mm
10:31 AM 29.3°F-1.5°C -20.5°F-29.2°C 1% 7.5 mph NW12.1 kmh NW 16.1 mph25.9 kmh 29.68 in1005.1 mb 0.00 in0.0 mm 0.00 in0.0 mm 0.00 in0.0 mm
10:21 AM 28.8°F-1.8°C -21.0°F-29.4°C 1% 7.3 mph WNW11.7 kmh WNW 16.8 mph27.0 kmh 29.68 in1005.1 mb 0.00 in0.0 mm 0.00 in0.0 mm 0.00 in0.0 mm
10:11 AM 28.3°F-2.1°C -21.4°F-29.7°C 1% 6.1 mph WNW9.8 kmh WNW 14.5 mph23.3 kmh 29.68 in1005.1 mb 0.00 in0.0 mm 0.00 in0.0 mm 0.00 in0.0 mm
10:01 AM 27.0°F-2.8°C -22.4°F-30.2°C 1% 6.3 mph W10.1 kmh W 12.1 mph19.5 kmh 29.68 in1005.1 mb 0.00 in0.0 mm 0.00 in0.0 mm 0.00 in0.0 mm
09:51 AM 26.5°F-3.1°C -22.9°F-30.5°C 1% 8.5 mph W13.7 kmh W 14.9 mph24.0 kmh 29.68 in1005.1 mb 0.00 in0.0 mm 0.00 in0.0 mm 0.00 in0.0 mm
09:41 AM 25.6°F-3.6°C -23.6°F-30.9°C 1% 6.3 mph WSW10.1 kmh WSW 12.9 mph20.8 kmh 29.66 in1004.4 mb 0.00 in0.0 mm 0.00 in0.0 mm 0.00 in0.0 mm
09:31 AM 24.8°F-4.0°C -24.1°F-31.2°C 1% 7.7 mph W12.4 kmh W 11.0 mph17.7 kmh 29.65 in1004.1 mb 0.00 in0.0 mm 0.00 in0.0 mm 0.00 in0.0 mm
09:21 AM 24.1°F-4.4°C -24.6°F-31.4°C 1% 6.4 mph NNW10.3 kmh NNW 12.1 mph19.5 kmh 29.66 in1004.4 mb 0.00 in0.0 mm 0.00 in0.0 mm 0.00 in0.0 mm
09:11 AM 23.4°F-4.8°C -25.3°F-31.8°C 1% 5.6 mph W9.0 kmh W 11.0 mph17.7 kmh 29.66 in1004.4 mb 0.00 in0.0 mm 0.00 in0.0 mm 0.00 in0.0 mm
09:01 AM 22.9°F-5.1°C -25.7°F-32.1°C 1% 6.8 mph NW10.9 kmh NW 10.2 mph16.4 kmh 29.66 in1004.4 mb 0.00 in0.0 mm 0.00 in0.0 mm 0.00 in0.0 mm
08:51 AM 22.1°F-5.5°C -26.3°F-32.4°C 1% 4.0 mph NW6.4 kmh NW 9.4 mph15.1 kmh 29.66 in1004.4 mb 0.00 in0.0 mm 0.00 in0.0 mm 0.00 in0.0 mm
08:41 AM 22.0°F-5.6°C -26.5°F-32.5°C 1% 5.6 mph W9.0 kmh W 8.9 mph14.3 kmh 29.66 in1004.4 mb 0.00 in0.0 mm 0.00 in0.0 mm 0.00 in0.0 mm
08:31 AM 21.2°F-6.0°C -27.0°F-32.8°C 1% 9.2 mph W14.8 kmh W 13.7 mph22.0 kmh 29.67 in1004.7 mb 0.00 in0.0 mm 0.00 in0.0 mm 0.00 in0.0 mm
08:21 AM 21.1°F-6.1°C -27.1°F-32.8°C 1% 5.1 mph WNW8.2 kmh WNW 12.1 mph19.5 kmh 29.66 in1004.4 mb 0.00 in0.0 mm 0.00 in0.0 mm 0.00 in0.0 mm
08:11 AM 20.9°F-6.2°C -27.3°F-32.9°C 1% 4.3 mph W6.9 kmh W 11.0 mph17.7 kmh 29.65 in1004.1 mb 0.00 in0.0 mm 0.00 in0.0 mm 0.00 in0.0 mm
08:01 AM 18.4°F-7.6°C -29.2°F-34.0°C 1% 6.5 mph WSW10.5 kmh WSW 10.2 mph16.4 kmh 29.65 in1004.1 mb 0.00 in0.0 mm 0.00 in0.0 mm 0.00 in0.0 mm
07:51 AM 18.4°F-7.6°C -29.2°F-34.0°C 1% 4.3 mph W6.9 kmh W 7.0 mph11.3 kmh 29.64 in1003.7 mb 0.00 in0.0 mm 0.00 in0.0 mm 0.00 in0.0 mm
07:41 AM 18.4°F-7.6°C -29.2°F-34.0°C 1% 3.1 mph WSW5.0 kmh WSW 8.2 mph13.2 kmh 29.63 in1003.4 mb 0.00 in0.0 mm 0.00 in0.0 mm 0.00 in0.0 mm
07:31 AM 18.4°F-7.6°C -29.2°F-34.0°C 1% 4.8 mph WNW7.7 kmh WNW 7.0 mph11.3 kmh 29.64 in1003.7 mb 0.00 in0.0 mm 0.00 in0.0 mm 0.00 in0.0 mm
07:21 AM 18.4°F-7.6°C -29.2°F-34.0°C 1% 4.3 mph WSW6.9 kmh WSW 8.2 mph13.2 kmh 29.63 in1003.4 mb 0.00 in0.0 mm 0.00 in0.0 mm 0.00 in0.0 mm
07:11 AM 18.7°F-7.4°C -28.8°F-33.8°C 1% 5.3 mph W8.5 kmh W 7.0 mph11.3 kmh 29.62 in1003.0 mb 0.00 in0.0 mm 0.00 in0.0 mm 0.00 in0.0 mm
07:01 AM 18.9°F-7.3°C -28.7°F-33.7°C 1% 6.0 mph W9.7 kmh W 9.4 mph15.1 kmh 29.61 in1002.7 mb 0.00 in0.0 mm 0.00 in0.0 mm 0.00 in0.0 mm
06:51 AM 19.1°F-7.2°C -28.5°F-33.6°C 1% 6.8 mph W10.9 kmh W 9.8 mph15.8 kmh 29.61 in1002.7 mb 0.00 in0.0 mm 0.00 in0.0 mm 0.00 in0.0 mm
06:41 AM 19.4°F-7.0°C -28.3°F-33.5°C 1% 3.5 mph WSW5.6 kmh WSW 12.6 mph20.3 kmh 29.61 in1002.7 mb 0.00 in0.0 mm 0.00 in0.0 mm 0.00 in0.0 mm
06:31 AM 19.8°F-6.8°C -28.0°F-33.3°C 1% 5.2 mph WSW8.4 kmh WSW 7.9 mph12.7 kmh 29.61 in1002.7 mb 0.00 in0.0 mm 0.00 in0.0 mm 0.00 in0.0 mm
06:21 AM 20.2°F-6.6°C -27.7°F-33.2°C 1% 5.1 mph W8.2 kmh W 7.5 mph12.1 kmh 29.60 in1002.4 mb 0.00 in0.0 mm 0.00 in0.0 mm 0.00 in0.0 mm
06:11 AM 20.5°F-6.4°C -27.5°F-33.1°C 1% 4.3 mph WNW6.9 kmh WNW 9.4 mph15.1 kmh 29.60 in1002.4 mb 0.00 in0.0 mm 0.00 in0.0 mm 0.00 in0.0 mm
06:01 AM 21.2°F-6.0°C -27.0°F-32.8°C 1% 4.8 mph W7.7 kmh W 7.5 mph12.1 kmh 29.60 in1002.4 mb 0.00 in0.0 mm 0.00 in0.0 mm 0.00 in0.0 mm
05:51 AM 21.6°F-5.8°C -26.7°F-32.6°C 1% 4.6 mph W7.4 kmh W 9.4 mph15.1 kmh 29.60 in1002.4 mb 0.00 in0.0 mm 0.00 in0.0 mm 0.00 in0.0 mm
05:41 AM 22.1°F-5.5°C -26.3°F-32.4°C 1% 4.7 mph WSW7.6 kmh WSW 8.2 mph13.2 kmh 29.60 in1002.4 mb 0.00 in0.0 mm 0.00 in0.0 mm 0.00 in0.0 mm
05:31 AM 22.7°F-5.2°C -25.8°F-32.1°C 1% 7.7 mph WSW12.4 kmh WSW 9.8 mph15.8 kmh 29.60 in1002.4 mb 0.00 in0.0 mm 0.00 in0.0 mm 0.00 in0.0 mm
05:21 AM 22.7°F-5.2°C -25.8°F-32.1°C 1% 4.8 mph W7.7 kmh W 14.2 mph22.9 kmh 29.59 in1002.0 mb 0.00 in0.0 mm 0.00 in0.0 mm 0.00 in0.0 mm
05:11 AM 22.7°F-5.2°C -25.8°F-32.1°C 1% 4.7 mph WNW7.6 kmh WNW 12.6 mph20.3 kmh 29.59 in1002.0 mb 0.00 in0.0 mm 0.00 in0.0 mm 0.00 in0.0 mm
05:01 AM 22.7°F-5.2°C -25.8°F-32.1°C 1% 5.8 mph NW9.3 kmh NW 12.9 mph20.8 kmh 29.58 in1001.7 mb 0.00 in0.0 mm 0.00 in0.0 mm 0.00 in0.0 mm
04:51 AM 22.9°F-5.1°C -25.7°F-32.1°C 1% 4.1 mph WSW6.6 kmh WSW 11.7 mph18.8 kmh 29.58 in1001.7 mb 0.00 in0.0 mm 0.00 in0.0 mm 0.00 in0.0 mm
04:41 AM 23.0°F-5.0°C -25.6°F-32.0°C 1% 6.9 mph WNW11.1 kmh WNW 10.2 mph16.4 kmh 29.58 in1001.7 mb 0.00 in0.0 mm 0.00 in0.0 mm 0.00 in0.0 mm
04:31 AM 23.4°F-4.8°C -25.3°F-31.8°C 1% 5.0 mph WSW8.0 kmh WSW 9.8 mph15.8 kmh 29.57 in1001.4 mb 0.00 in0.0 mm 0.00 in0.0 mm 0.00 in0.0 mm
04:21 AM 23.6°F-4.7°C -25.1°F-31.7°C 1% 4.0 mph W6.4 kmh W 6.0 mph9.7 kmh 29.55 in1000.7 mb 0.00 in0.0 mm 0.00 in0.0 mm 0.00 in0.0 mm
04:11 AM 23.8°F-4.6°C -25.0°F-31.7°C 1% 6.6 mph W10.6 kmh W 9.4 mph15.1 kmh 29.55 in1000.7 mb 0.00 in0.0 mm 0.00 in0.0 mm 0.00 in0.0 mm
04:01 AM 23.8°F-4.6°C -25.0°F-31.7°C 1% 3.9 mph WNW6.3 kmh WNW 7.5 mph12.1 kmh 29.56 in1001.0 mb 0.00 in0.0 mm 0.00 in0.0 mm 0.00 in0.0 mm
03:50 AM 23.9°F-4.5°C -24.8°F-31.6°C 1% 4.9 mph WNW7.9 kmh WNW 8.2 mph13.2 kmh 29.56 in1001.0 mb 0.00 in0.0 mm 0.00 in0.0 mm 0.00 in0.0 mm
03:40 AM 24.1°F-4.4°C -24.6°F-31.4°C 1% 4.4 mph NW7.1 kmh NW 11.0 mph17.7 kmh 29.56 in1001.0 mb 0.00 in0.0 mm 0.00 in0.0 mm 0.00 in0.0 mm
03:30 AM 24.1°F-4.4°C -24.6°F-31.4°C 1% 3.5 mph WNW5.6 kmh WNW 9.4 mph15.1 kmh 29.56 in1001.0 mb 0.00 in0.0 mm 0.00 in0.0 mm 0.00 in0.0 mm
03:20 AM 23.9°F-4.5°C -24.8°F-31.6°C 1% 3.3 mph SSW5.3 kmh SSW 9.4 mph15.1 kmh 29.56 in1001.0 mb 0.00 in0.0 mm 0.00 in0.0 mm 0.00 in0.0 mm
03:11 AM 23.9°F-4.5°C -24.8°F-31.6°C 1% 2.8 mph W4.5 kmh W 7.0 mph11.3 kmh 29.57 in1001.4 mb 0.00 in0.0 mm 0.00 in0.0 mm 0.00 in0.0 mm
03:01 AM 23.8°F-4.6°C -25.0°F-31.7°C 1% 5.7 mph WSW9.2 kmh WSW 11.4 mph18.3 kmh 29.56 in1001.0 mb 0.00 in0.0 mm 0.00 in0.0 mm 0.00 in0.0 mm
02:50 AM 23.8°F-4.6°C -25.0°F-31.7°C 1% 2.0 mph WSW3.2 kmh WSW 6.0 mph9.7 kmh 29.56 in1001.0 mb 0.00 in0.0 mm 0.00 in0.0 mm 0.00 in0.0 mm
02:40 AM 23.6°F-4.7°C -25.1°F-31.7°C 1% 2.3 mph W3.7 kmh W 6.3 mph10.1 kmh 29.55 in1000.7 mb 0.00 in0.0 mm 0.00 in0.0 mm 0.00 in0.0 mm
02:30 AM 23.4°F-4.8°C -25.3°F-31.8°C 1% 2.1 mph NNW3.4 kmh NNW 7.0 mph11.3 kmh 29.55 in1000.7 mb 0.00 in0.0 mm 0.00 in0.0 mm 0.00 in0.0 mm
02:20 AM 23.6°F-4.7°C -25.1°F-31.7°C 1% 4.6 mph NW7.4 kmh NW 11.7 mph18.8 kmh 29.55 in1000.7 mb 0.00 in0.0 mm 0.00 in0.0 mm 0.00 in0.0 mm
02:10 AM 23.8°F-4.6°C -25.0°F-31.7°C 1% 3.3 mph W5.3 kmh W 10.5 mph16.9 kmh 29.54 in1000.3 mb 0.00 in0.0 mm 0.00 in0.0 mm 0.00 in0.0 mm
02:01 AM 24.1°F-4.4°C -24.6°F-31.4°C 1% 5.1 mph WSW8.2 kmh WSW 8.6 mph13.8 kmh 29.54 in1000.3 mb 0.00 in0.0 mm 0.00 in0.0 mm 0.00 in0.0 mm
01:50 AM 24.3°F-4.3°C -24.6°F-31.4°C 1% 5.7 mph NW9.2 kmh NW 8.6 mph13.8 kmh 29.54 in1000.3 mb 0.00 in0.0 mm 0.00 in0.0 mm 0.00 in0.0 mm
01:40 AM 24.5°F-4.2°C -24.4°F-31.3°C 1% 6.0 mph WNW9.7 kmh WNW 16.1 mph25.9 kmh 29.53 in1000.0 mb 0.00 in0.0 mm 0.00 in0.0 mm 0.00 in0.0 mm
01:30 AM 24.8°F-4.0°C -24.1°F-31.2°C 1% 4.7 mph WSW7.6 kmh WSW 12.9 mph20.8 kmh 29.53 in1000.0 mb 0.00 in0.0 mm 0.00 in0.0 mm 0.00 in0.0 mm
01:20 AM 25.0°F-3.9°C -23.9°F-31.1°C 1% 6.8 mph W10.9 kmh W 10.2 mph16.4 kmh 29.52 in999.7 mb 0.00 in0.0 mm 0.00 in0.0 mm 0.00 in0.0 mm
01:10 AM 25.6°F-3.6°C -23.6°F-30.9°C 1% 5.1 mph W8.2 kmh W 8.2 mph13.2 kmh 29.51 in999.3 mb 0.00 in0.0 mm 0.00 in0.0 mm 0.00 in0.0 mm
01:00 AM 25.9°F-3.4°C -23.2°F-30.7°C 1% 6.1 mph W9.8 kmh W 10.5 mph16.9 kmh 29.51 in999.3 mb 0.00 in0.0 mm 0.00 in0.0 mm 0.00 in0.0 mm
12:50 AM 26.3°F-3.2°C -22.9°F-30.5°C 1% 5.3 mph NNE8.5 kmh NNE 7.0 mph11.3 kmh 29.51 in999.3 mb 0.00 in0.0 mm 0.00 in0.0 mm 0.00 in0.0 mm
12:40 AM 26.6°F-3.0°C -22.7°F-30.4°C 1% 3.9 mph W6.3 kmh W 8.6 mph13.8 kmh 29.50 in999.0 mb 0.00 in0.0 mm 0.00 in0.0 mm 0.00 in0.0 mm
12:30 AM 27.2°F-2.7°C -22.2°F-30.1°C 1% 3.0 mph WNW4.8 kmh WNW 9.4 mph15.1 kmh 29.50 in999.0 mb 0.00 in0.0 mm 0.00 in0.0 mm 0.00 in0.0 mm
12:20 AM 27.7°F-2.4°C -21.8°F-29.9°C 1% 6.0 mph NW9.7 kmh NW 13.3 mph21.4 kmh 29.51 in999.3 mb 0.00 in0.0 mm 0.00 in0.0 mm 0.00 in0.0 mm
12:10 AM 28.1°F-2.2°C -21.5°F-29.7°C 1% 5.3 mph NW8.5 kmh NW 10.5 mph16.9 kmh 29.50 in999.0 mb 0.00 in0.0 mm 0.00 in0.0 mm 0.00 in0.0 mm
12:00 AM 28.4°F-2.0°C -21.2°F-29.6°C 1% 6.5 mph SW10.5 kmh SW 8.2 mph13.2 kmh 29.50 in999.0 mb 0.00 in0.0 mm 0.00 in0.0 mm 0.00 in0.0 mm